Time;durP1;ratioP1;P1;durP2;ratioP2;P2;SDS_P1;SDS_P2;PMS_P1;PMS_P2;Temp;Humidity;BMP_temperature;BMP_pressure;BME280_temperature;BME280_humidity;BME280_pressure;Samples;Min_cycle;Max_cycle;Signal;HPM_P1;HPM_P2
2022/01/06 00:01:05;;;;;;;13.88;1.40;;;;;;;;;;5028334;28;20052;-55
2022/01/06 00:03:31;;;;;;;12.88;1.50;;;;;;;;;;5025959;28;20069;-55
2022/01/06 00:06:03;;;;;;;7.07;1.30;;;;;;;;;;5029009;28;20052;-56
2022/01/06 00:08:31;;;;;;;9.82;1.40;;;;;;;;;;5025401;28;20052;-57
2022/01/06 00:10:59;;;;;;;6.25;1.15;;;;;;;;;;5029184;28;20150;-57
2022/01/06 00:13:32;;;;;;;13.87;1.37;;;;;;;;;;5031316;28;20049;-56
2022/01/06 00:16:13;;;;;;;4.82;1.08;;;;;;;;;;5044857;28;20625;-55
2022/01/06 00:23:07;;;;;;;10.95;1.02;;;;;;;;;;5028237;28;20060;-57
2022/01/06 00:24:19;;;;;;;6.63;1.10;;;;;;;;;;5040717;28;20190;-58
2022/01/06 00:26:48;;;;;;;7.95;1.15;;;;;;;;;;5028702;28;20080;-59
2022/01/06 00:29:15;;;;;;;11.93;1.13;;;;;;;;;;5024862;28;20057;-57
2022/01/06 00:31:41;;;;;;;12.48;2.03;;;;;;;;;;5028765;28;20057;-57
2022/01/06 00:34:10;;;;;;;9.55;2.20;;;;;;;;;;5025355;28;20080;-53
2022/01/06 00:36:37;;;;;;;10.90;1.83;;;;;;;;;;5028827;28;20092;-53
2022/01/06 00:39:05;;;;;;;8.07;1.27;;;;;;;;;;5026021;28;20053;-54
2022/01/06 00:41:33;;;;;;;10.90;2.00;;;;;;;;;;5047561;28;20049;-52
2022/01/06 00:44:02;;;;;;;5.97;1.08;;;;;;;;;;5051777;28;20053;-53
2022/01/06 00:46:29;;;;;;;7.32;1.10;;;;;;;;;;5028188;28;20053;-55
2022/01/06 00:48:56;;;;;;;8.68;1.08;;;;;;;;;;5028330;28;20073;-54
2022/01/06 00:51:23;;;;;;;8.27;1.00;;;;;;;;;;5044827;28;20052;-53
2022/01/06 00:53:50;;;;;;;7.57;0.93;;;;;;;;;;5055509;28;20083;-51
2022/01/06 00:56:16;;;;;;;9.68;1.15;;;;;;;;;;5032177;28;20133;-57
2022/01/06 00:58:43;;;;;;;7.38;1.52;;;;;;;;;;5028156;28;20075;-53
2022/01/06 01:01:10;;;;;;;11.95;1.40;;;;;;;;;;5048866;28;20130;-55
2022/01/06 01:03:37;;;;;;;11.20;1.07;;;;;;;;;;5045209;28;20055;-53
2022/01/06 01:06:03;;;;;;;6.53;1.15;;;;;;;;;;5063794;28;20056;-55
2022/01/06 01:08:34;;;;;;;10.60;1.60;;;;;;;;;;5048000;28;20088;-53
2022/01/06 01:11:00;;;;;;;5.45;1.30;;;;;;;;;;5061145;28;20064;-54
2022/01/06 01:13:32;;;;;;;7.78;1.10;;;;;;;;;;5048046;28;20057;-53
2022/01/06 01:16:07;;;;;;;7.75;0.90;;;;;;;;;;5030963;28;20073;-50
2022/01/06 01:18:35;;;;;;;9.35;1.17;;;;;;;;;;5047827;28;20136;-55
2022/01/06 01:21:01;;;;;;;5.13;0.93;;;;;;;;;;5027537;28;20049;-53
2022/01/06 01:23:28;;;;;;;5.72;1.05;;;;;;;;;;5031174;28;20111;-58
2022/01/06 01:25:55;;;;;;;8.48;1.17;;;;;;;;;;5027679;28;20056;-55
2022/01/06 01:28:21;;;;;;;7.07;1.00;;;;;;;;;;5030791;28;20084;-52
2022/01/06 01:31:04;;;;;;;4.90;0.88;;;;;;;;;;5028153;28;20048;-51
2022/01/06 01:33:31;;;;;;;6.93;0.82;;;;;;;;;;5032051;28;20048;-56
2022/01/06 01:35:59;;;;;;;6.53;1.02;;;;;;;;;;5033305;28;20057;-56
2022/01/06 01:38:26;;;;;;;5.87;0.93;;;;;;;;;;5047490;28;20098;-58
2022/01/06 01:40:55;;;;;;;13.95;2.20;;;;;;;;;;5033898;28;20303;-57
2022/01/06 01:43:21;;;;;;;9.68;2.10;;;;;;;;;;5064444;28;20119;-53
2022/01/06 01:45:54;;;;;;;10.00;2.08;;;;;;;;;;5042219;28;20045;-58
2022/01/06 01:48:29;;;;;;;7.88;2.55;;;;;;;;;;5030959;28;20076;-56
2022/01/06 01:50:55;;;;;;;12.15;2.20;;;;;;;;;;5026271;28;20049;-57
2022/01/06 01:53:23;;;;;;;13.65;1.83;;;;;;;;;;5036344;28;20483;-56
2022/01/06 01:55:50;;;;;;;7.07;1.83;;;;;;;;;;5044263;28;20045;-57
2022/01/06 01:58:17;;;;;;;5.70;1.50;;;;;;;;;;5031025;28;20053;-57
2022/01/06 02:00:43;;;;;;;9.02;1.25;;;;;;;;;;5031010;28;20044;-51
2022/01/06 02:03:10;;;;;;;3.15;0.82;;;;;;;;;;5043217;28;20068;-58
2022/01/06 02:05:36;;;;;;;4.85;1.20;;;;;;;;;;5031957;28;20148;-51
2022/01/06 02:08:05;;;;;;;5.32;1.10;;;;;;;;;;5045972;28;20056;-57
2022/01/06 02:10:31;;;;;;;;;;;;;;;;;;5031408;28;20074;-57
2022/01/06 02:13:01;;;;;;;6.95;0.85;;;;;;;;;;5037748;28;19993;-55
2022/01/06 02:15:28;;;;;;;11.80;1.10;;;;;;;;;;5047413;28;20095;-54
2022/01/06 02:17:55;;;;;;;8.90;0.80;;;;;;;;;;5042799;28;20060;-50
2022/01/06 02:20:24;;;;;;;5.38;0.70;;;;;;;;;;5047010;28;20114;-53
2022/01/06 02:22:52;;;;;;;11.05;1.02;;;;;;;;;;5036023;28;20056;-57
2022/01/06 02:25:19;;;;;;;6.43;0.95;;;;;;;;;;5030529;28;20114;-54
2022/01/06 02:27:48;;;;;;;6.07;0.80;;;;;;;;;;5026148;28;20060;-52
2022/01/06 02:30:15;;;;;;;7.28;0.80;;;;;;;;;;5029940;28;20063;-55
2022/01/06 02:32:42;;;;;;;9.07;1.10;;;;;;;;;;5027912;28;20048;-54
2022/01/06 02:35:10;;;;;;;7.18;0.88;;;;;;;;;;5046096;28;20061;-52
2022/01/06 02:37:39;;;;;;;9.75;1.50;;;;;;;;;;5042349;28;20572;-53
2022/01/06 02:40:07;;;;;;;6.88;1.00;;;;;;;;;;5046603;28;20107;-57
2022/01/06 02:42:34;;;;;;;8.50;1.00;;;;;;;;;;5042860;28;20061;-56
2022/01/06 02:45:01;;;;;;;4.38;0.98;;;;;;;;;;5063231;28;20052;-57
2022/01/06 02:47:27;;;;;;;6.07;0.90;;;;;;;;;;5046747;28;20052;-57
2022/01/06 02:49:54;;;;;;;6.80;0.88;;;;;;;;;;5027560;28;20143;-55
2022/01/06 02:52:20;;;;;;;10.25;1.20;;;;;;;;;;5030271;28;20052;-51
2022/01/06 02:54:48;;;;;;;11.10;1.05;;;;;;;;;;5026814;28;20057;-54
2022/01/06 02:57:15;;;;;;;6.37;0.70;;;;;;;;;;5029780;28;20052;-55
2022/01/06 02:59:41;;;;;;;5.55;0.70;;;;;;;;;;5052594;28;20077;-57
2022/01/06 03:02:09;;;;;;;5.20;0.77;;;;;;;;;;5046862;28;20075;-55
2022/01/06 03:04:35;;;;;;;9.70;1.10;;;;;;;;;;5034869;28;20083;-56
2022/01/06 03:07:03;;;;;;;5.55;0.90;;;;;;;;;;5029577;28;20041;-55
2022/01/06 03:09:39;;;;;;;6.30;0.60;;;;;;;;;;5026831;28;20059;-55
2022/01/06 03:12:11;;;;;;;8.75;1.05;;;;;;;;;;5030554;28;20056;-56
2022/01/06 03:14:38;;;;;;;6.43;0.90;;;;;;;;;;5019428;28;20048;-51
2022/01/06 03:17:05;;;;;;;4.82;1.00;;;;;;;;;;5062455;28;20144;-54
2022/01/06 03:19:31;;;;;;;7.68;0.93;;;;;;;;;;5057156;28;20068;-57
2022/01/06 03:21:58;;;;;;;8.18;1.05;;;;;;;;;;5046689;28;20387;-54
2022/01/06 03:24:25;;;;;;;4.00;0.77;;;;;;;;;;5040828;28;20052;-58
2022/01/06 03:26:51;;;;;;;6.07;0.73;;;;;;;;;;5064186;28;20049;-58
2022/01/06 03:29:19;;;;;;;8.07;1.08;;;;;;;;;;5060384;28;20120;-58
2022/01/06 03:31:46;;;;;;;12.02;1.30;;;;;;;;;;5011016;28;20049;-54
2022/01/06 03:34:12;;;;;;;9.90;1.08;;;;;;;;;;5011357;28;20049;-59
2022/01/06 03:36:39;;;;;;;5.32;0.93;;;;;;;;;;5023594;28;20052;-55
2022/01/06 03:39:05;;;;;;;7.35;0.82;;;;;;;;;;5029483;28;20051;-54
2022/01/06 03:41:32;;;;;;;6.07;0.85;;;;;;;;;;5029582;28;20153;-54
2022/01/06 03:43:59;;;;;;;4.28;1.10;;;;;;;;;;5029080;28;20152;-57
2022/01/06 03:46:27;;;;;;;7.78;0.90;;;;;;;;;;5024896;28;20080;-58
2022/01/06 03:48:57;;;;;;;5.18;0.82;;;;;;;;;;5029100;28;20060;-55
2022/01/06 03:51:24;;;;;;;4.53;0.52;;;;;;;;;;5032937;28;20048;-56
2022/01/06 03:53:51;;;;;;;5.78;0.70;;;;;;;;;;5061847;28;20056;-52
2022/01/06 03:56:18;;;;;;;2.85;0.70;;;;;;;;;;5035945;28;20068;-54
2022/01/06 03:58:45;;;;;;;6.60;0.75;;;;;;;;;;5028359;28;20049;-53
2022/01/06 04:01:11;;;;;;;4.45;0.82;;;;;;;;;;5029238;28;20452;-53
2022/01/06 04:03:39;;;;;;;5.68;0.88;;;;;;;;;;5045346;28;20057;-56
2022/01/06 04:06:06;;;;;;;4.07;0.60;;;;;;;;;;5040727;28;20124;-54
2022/01/06 04:08:33;;;;;;;3.22;0.90;;;;;;;;;;5044597;28;20383;-53
2022/01/06 04:10:59;;;;;;;3.35;0.60;;;;;;;;;;5041230;28;20044;-54
2022/01/06 04:13:26;;;;;;;2.72;0.73;;;;;;;;;;5035673;28;20061;-52
2022/01/06 04:15:52;;;;;;;3.47;0.90;;;;;;;;;;5045084;28;20053;-52
2022/01/06 04:18:19;;;;;;;7.35;0.63;;;;;;;;;;5025628;28;20057;-59
2022/01/06 04:20:47;;;;;;;4.80;0.60;;;;;;;;;;5028979;28;20056;-51
2022/01/06 04:23:14;;;;;;;2.53;0.60;;;;;;;;;;5023715;28;20063;-53
2022/01/06 04:25:40;;;;;;;5.43;0.68;;;;;;;;;;5029394;28;20103;-54
2022/01/06 04:28:07;;;;;;;5.18;1.17;;;;;;;;;;5024986;28;20482;-52
2022/01/06 04:30:35;;;;;;;5.95;1.00;;;;;;;;;;5031860;28;20461;-52
2022/01/06 04:33:01;;;;;;;4.00;0.93;;;;;;;;;;5028872;28;20049;-56
2022/01/06 04:35:28;;;;;;;6.45;0.68;;;;;;;;;;5049295;28;20194;-55
2022/01/06 04:37:56;;;;;;;4.60;0.90;;;;;;;;;;5028042;28;20048;-56
2022/01/06 04:40:22;;;;;;;6.27;0.70;;;;;;;;;;5048590;28;20144;-53
2022/01/06 04:42:49;;;;;;;4.18;0.73;;;;;;;;;;5030399;28;20049;-55
2022/01/06 04:45:15;;;;;;;3.10;0.80;;;;;;;;;;5032985;28;29135;-56
2022/01/06 04:47:42;;;;;;;14.20;0.93;;;;;;;;;;5044757;28;20063;-55
2022/01/06 04:50:11;;;;;;;6.18;0.70;;;;;;;;;;5032336;28;20114;-55
2022/01/06 04:52:38;;;;;;;3.25;0.75;;;;;;;;;;5030241;28;20041;-56
2022/01/06 04:55:06;;;;;;;4.93;0.80;;;;;;;;;;5050534;28;20057;-52
2022/01/06 04:57:33;;;;;;;;;;;;;;;;;;5051041;28;20052;-53
2022/01/06 04:59:59;;;;;;;1.98;0.47;;;;;;;;;;5028666;28;19920;-53
2022/01/06 05:02:26;;;;;;;5.45;0.68;;;;;;;;;;5031848;28;20057;-54
2022/01/06 05:04:52;;;;;;;3.60;0.75;;;;;;;;;;5028515;28;20059;-53
2022/01/06 05:07:19;;;;;;;3.63;0.90;;;;;;;;;;5031443;28;20072;-53
2022/01/06 05:09:46;;;;;;;3.40;0.75;;;;;;;;;;5045035;28;20073;-56
2022/01/06 05:12:13;;;;;;;7.32;0.75;;;;;;;;;;5032133;28;20064;-57
2022/01/06 05:14:40;;;;;;;8.27;1.00;;;;;;;;;;5043089;28;20151;-53
2022/01/06 05:17:07;;;;;;;3.08;0.80;;;;;;;;;;5048453;28;20060;-55
2022/01/06 05:19:34;;;;;;;2.75;0.52;;;;;;;;;;5055070;28;20053;-58
2022/01/06 05:22:00;;;;;;;7.13;0.68;;;;;;;;;;5031965;28;20076;-55
2022/01/06 05:24:27;;;;;;;2.50;0.68;;;;;;;;;;5028617;28;20044;-59
2022/01/06 05:26:56;;;;;;;9.07;1.05;;;;;;;;;;5031343;28;20135;-57
2022/01/06 05:29:24;;;;;;;5.38;1.00;;;;;;;;;;5028317;28;20048;-53
2022/01/06 05:31:51;;;;;;;;;;;;;;;;;;5031959;28;20068;-56
2022/01/06 05:34:17;;;;;;;5.25;0.40;;;;;;;;;;5027835;28;19972;-56
2022/01/06 05:36:44;;;;;;;7.72;0.98;;;;;;;;;;5047843;28;20044;-52
2022/01/06 05:39:10;;;;;;;4.32;0.65;;;;;;;;;;5031480;28;20102;-53
2022/01/06 05:41:37;;;;;;;1.65;0.47;;;;;;;;;;5028143;28;20049;-51
2022/01/06 05:44:03;;;;;;;6.35;1.05;;;;;;;;;;5033190;28;20079;-57
2022/01/06 05:46:31;;;;;;;9.98;0.88;;;;;;;;;;5043113;28;20049;-52
2022/01/06 05:48:59;;;;;;;6.90;0.93;;;;;;;;;;5049195;28;20114;-59
2022/01/06 05:51:25;;;;;;;6.97;0.80;;;;;;;;;;5034613;28;20056;-55
2022/01/06 05:53:53;;;;;;;6.22;0.95;;;;;;;;;;5048775;28;20163;-53
2022/01/06 05:56:20;;;;;;;7.40;1.40;;;;;;;;;;5035112;28;20083;-57
2022/01/06 05:58:49;;;;;;;7.78;1.35;;;;;;;;;;5029612;28;20049;-57
2022/01/06 06:01:15;;;;;;;4.53;1.45;;;;;;;;;;5027119;28;20057;-57
2022/01/06 06:03:43;;;;;;;2.53;0.68;;;;;;;;;;5040109;28;20107;-58
2022/01/06 06:06:10;;;;;;;10.68;1.50;;;;;;;;;;5022379;28;20115;-57
2022/01/06 06:08:40;;;;;;;5.18;1.70;;;;;;;;;;5036258;28;20069;-55
2022/01/06 06:11:07;;;;;;;9.15;1.20;;;;;;;;;;5023822;28;20051;-57
2022/01/06 06:13:33;;;;;;;5.10;1.17;;;;;;;;;;5028671;28;20140;-54
2022/01/06 06:16:00;;;;;;;3.38;0.93;;;;;;;;;;5024710;28;20053;-54
2022/01/06 06:18:26;;;;;;;9.40;1.25;;;;;;;;;;5029395;28;20064;-55
2022/01/06 06:20:55;;;;;;;8.60;1.13;;;;;;;;;;5036733;28;20101;-59
2022/01/06 06:23:21;;;;;;;6.38;1.20;;;;;;;;;;5026994;28;20166;-58
2022/01/06 06:25:47;;;;;;;11.18;1.52;;;;;;;;;;5027635;28;20046;-55
2022/01/06 06:28:16;;;;;;;6.55;1.88;;;;;;;;;;5023827;28;20080;-57
2022/01/06 06:30:42;;;;;;;11.38;2.80;;;;;;;;;;5027216;28;20103;-60
2022/01/06 06:33:09;;;;;;;8.50;2.22;;;;;;;;;;5031331;28;20046;-52
2022/01/06 06:35:36;;;;;;;3.03;1.25;;;;;;;;;;5027479;28;20080;-51
2022/01/06 06:38:06;;;;;;;10.45;2.28;;;;;;;;;;5022904;28;20050;-53
2022/01/06 06:40:32;;;;;;;9.90;2.63;;;;;;;;;;5022765;28;20084;-53
2022/01/06 06:43:00;;;;;;;7.47;1.77;;;;;;;;;;5035031;28;20057;-56
2022/01/06 06:45:26;;;;;;;6.70;1.40;;;;;;;;;;5026126;28;20054;-56
2022/01/06 06:47:53;;;;;;;4.57;1.30;;;;;;;;;;5021502;28;20140;-54
2022/01/06 06:50:21;;;;;;;5.57;1.20;;;;;;;;;;5042122;28;20053;-54
2022/01/06 06:52:48;;;;;;;7.82;2.13;;;;;;;;;;5018407;28;20060;-54
2022/01/06 06:55:16;;;;;;;6.10;1.60;;;;;;;;;;5025278;28;20092;-57
2022/01/06 06:57:42;;;;;;;8.32;1.95;;;;;;;;;;5021057;28;20096;-59
2022/01/06 07:00:10;;;;;;;5.22;1.25;;;;;;;;;;5025278;28;20080;-54
2022/01/06 07:02:37;;;;;;;5.80;1.63;;;;;;;;;;5021136;28;20144;-56
2022/01/06 07:05:03;;;;;;;7.60;1.60;;;;;;;;;;5024923;28;20327;-60
2022/01/06 07:07:30;;;;;;;7.97;1.73;;;;;;;;;;5025356;28;20049;-55
2022/01/06 07:09:57;;;;;;;6.93;1.90;;;;;;;;;;5019423;28;20068;-55
2022/01/06 07:12:25;;;;;;;7.40;1.92;;;;;;;;;;5043603;28;20048;-58
2022/01/06 07:14:51;;;;;;;5.78;1.85;;;;;;;;;;5021974;28;20052;-56
2022/01/06 07:17:18;;;;;;;5.53;1.45;;;;;;;;;;5025579;28;20053;-61
2022/01/06 07:19:45;;;;;;;7.22;1.80;;;;;;;;;;5021057;28;20049;-58
2022/01/06 07:22:11;;;;;;;6.80;1.50;;;;;;;;;;5025873;28;20119;-56
2022/01/06 07:24:39;;;;;;;9.00;1.77;;;;;;;;;;5021492;28;20041;-57
2022/01/06 07:27:05;;;;;;;4.25;1.48;;;;;;;;;;5027539;28;20520;-54
2022/01/06 07:29:33;;;;;;;8.80;1.42;;;;;;;;;;5023857;28;20055;-55
2022/01/06 07:32:00;;;;;;;4.65;1.40;;;;;;;;;;5026696;28;20053;-55
2022/01/06 07:34:26;;;;;;;10.90;1.58;;;;;;;;;;5022078;28;20192;-58
2022/01/06 07:36:53;;;;;;;6.93;1.70;;;;;;;;;;5025793;28;20126;-61
2022/01/06 07:39:21;;;;;;;6.82;1.50;;;;;;;;;;5022581;28;20053;-59
2022/01/06 07:41:47;;;;;;;6.80;1.55;;;;;;;;;;5026900;28;20096;-56
2022/01/06 07:44:14;;;;;;;5.40;1.45;;;;;;;;;;5023806;28;20049;-58
2022/01/06 07:46:43;;;;;;;6.35;1.27;;;;;;;;;;5028232;28;20125;-55
2022/01/06 07:49:12;;;;;;;5.43;1.52;;;;;;;;;;5026819;28;20468;-60
2022/01/06 07:51:38;;;;;;;7.68;1.67;;;;;;;;;;5022646;28;20120;-51
2022/01/06 07:54:05;;;;;;;8.63;2.03;;;;;;;;;;5026400;28;20054;-51
2022/01/06 07:56:32;;;;;;;8.90;1.65;;;;;;;;;;5022409;28;20339;-53
2022/01/06 07:58:58;;;;;;;6.90;2.08;;;;;;;;;;5025638;28;20054;-54
2022/01/06 08:01:25;;;;;;;7.95;2.40;;;;;;;;;;5021763;28;20123;-53
2022/01/06 08:03:53;;;;;;;9.65;2.50;;;;;;;;;;5024676;28;20136;-54
2022/01/06 08:06:20;;;;;;;9.60;2.28;;;;;;;;;;5021949;28;20132;-55
2022/01/06 08:08:47;;;;;;;9.02;2.95;;;;;;;;;;5024660;28;20057;-57
2022/01/06 08:11:14;;;;;;;10.35;2.08;;;;;;;;;;5021231;28;20084;-51
2022/01/06 08:13:40;;;;;;;6.10;1.60;;;;;;;;;;5037021;28;20126;-58
2022/01/06 08:16:07;;;;;;;10.40;2.35;;;;;;;;;;5033730;28;20115;-56
2022/01/06 08:18:33;;;;;;;5.85;1.20;;;;;;;;;;5016046;28;20057;-53
2022/01/06 08:21:01;;;;;;;7.18;1.45;;;;;;;;;;5021108;28;20057;-56
2022/01/06 08:23:28;;;;;;;9.40;1.77;;;;;;;;;;5024978;28;20038;-54
2022/01/06 08:25:55;;;;;;;5.03;1.30;;;;;;;;;;5020995;28;20115;-57
2022/01/06 08:28:22;;;;;;;5.78;1.23;;;;;;;;;;5024725;28;20057;-56
2022/01/06 08:30:48;;;;;;;5.80;1.33;;;;;;;;;;5024976;28;20131;-55
2022/01/06 08:33:15;;;;;;;8.40;1.52;;;;;;;;;;5021268;28;20123;-58
2022/01/06 08:35:42;;;;;;;7.00;1.55;;;;;;;;;;5025179;28;20152;-56
2022/01/06 08:38:11;;;;;;;14.50;3.42;;;;;;;;;;5021369;28;20064;-56
2022/01/06 08:40:38;;;;;;;12.48;2.95;;;;;;;;;;5025877;28;20164;-56
2022/01/06 08:43:05;;;;;;;12.65;3.10;;;;;;;;;;5021837;28;20053;-57
2022/01/06 08:45:32;;;;;;;9.07;2.45;;;;;;;;;;5025165;28;20145;-55
2022/01/06 08:47:59;;;;;;;17.73;2.85;;;;;;;;;;5020985;28;20054;-56
2022/01/06 08:50:26;;;;;;;15.43;3.40;;;;;;;;;;5025095;28;20054;-56
2022/01/06 08:52:52;;;;;;;7.93;2.50;;;;;;;;;;5021241;28;20069;-57
2022/01/06 08:55:20;;;;;;;8.23;2.13;;;;;;;;;;5025111;28;20049;-57
2022/01/06 08:57:47;;;;;;;4.40;1.60;;;;;;;;;;5020569;28;20099;-56
2022/01/06 09:00:14;;;;;;;9.82;2.78;;;;;;;;;;5025130;28;20296;-59
2022/01/06 09:02:41;;;;;;;8.80;2.40;;;;;;;;;;5028154;28;20053;-58
2022/01/06 09:05:08;;;;;;;9.27;1.80;;;;;;;;;;5060908;28;20049;-58
2022/01/06 09:07:37;;;;;;;7.25;1.67;;;;;;;;;;5057853;28;20083;-55
2022/01/06 09:10:04;;;;;;;8.15;1.90;;;;;;;;;;5062454;28;20049;-57
2022/01/06 09:12:32;;;;;;;7.70;2.10;;;;;;;;;;5060822;28;20091;-55
2022/01/06 09:14:58;;;;;;;7.38;1.85;;;;;;;;;;5044078;28;20053;-57
2022/01/06 09:17:25;;;;;;;7.15;1.65;;;;;;;;;;5049679;28;20059;-56
2022/01/06 09:19:52;;;;;;;6.28;1.65;;;;;;;;;;5061070;28;20059;-55
2022/01/06 09:22:19;;;;;;;7.60;1.52;;;;;;;;;;5066248;28;20053;-52
2022/01/06 09:24:45;;;;;;;9.15;1.70;;;;;;;;;;5060828;28;20067;-57
2022/01/06 09:27:12;;;;;;;5.47;1.88;;;;;;;;;;5061802;28;20050;-54
2022/01/06 09:29:40;;;;;;;12.05;2.75;;;;;;;;;;5024993;28;20111;-52
2022/01/06 09:32:06;;;;;;;18.03;4.57;;;;;;;;;;5028621;28;20081;-56
2022/01/06 09:34:33;;;;;;;13.98;2.85;;;;;;;;;;5034094;28;20102;-58
2022/01/06 09:37:01;;;;;;;7.00;2.00;;;;;;;;;;5048110;28;20053;-54
2022/01/06 09:39:28;;;;;;;14.43;1.83;;;;;;;;;;5053688;28;20296;-54
2022/01/06 09:41:54;;;;;;;4.22;1.33;;;;;;;;;;5024588;28;20120;-53
2022/01/06 09:44:21;;;;;;;7.22;2.15;;;;;;;;;;5009879;28;20058;-55
2022/01/06 09:46:49;;;;;;;6.28;1.45;;;;;;;;;;5027489;28;20117;-53
2022/01/06 09:49:15;;;;;;;6.95;1.20;;;;;;;;;;5024774;28;20064;-54
2022/01/06 09:51:42;;;;;;;7.63;1.08;;;;;;;;;;5027433;28;20053;-55
2022/01/06 09:54:09;;;;;;;5.32;1.30;;;;;;;;;;5027002;28;20053;-51
2022/01/06 09:56:36;;;;;;;5.55;1.30;;;;;;;;;;5025573;28;20057;-56
2022/01/06 09:59:02;;;;;;;8.18;1.45;;;;;;;;;;5049812;28;20498;-55
2022/01/06 10:01:29;;;;;;;6.15;1.35;;;;;;;;;;5026588;28;20123;-55
2022/01/06 10:04:00;;;;;;;2.95;1.40;;;;;;;;;;5028348;28;20084;-58
2022/01/06 10:06:28;;;;;;;5.68;1.65;;;;;;;;;;5023095;28;20089;-57
2022/01/06 10:08:56;;;;;;;12.65;3.30;;;;;;;;;;5027264;28;20096;-54
2022/01/06 10:11:24;;;;;;;7.47;2.58;;;;;;;;;;5022809;28;20285;-57
2022/01/06 10:13:55;;;;;;;6.88;1.90;;;;;;;;;;5041090;28;20045;-55
2022/01/06 10:16:22;;;;;;;12.23;3.08;;;;;;;;;;5031724;28;20064;-54
2022/01/06 10:19:04;;;;;;;7.13;1.60;;;;;;;;;;5026698;28;20068;-55
2022/01/06 10:21:31;;;;;;;8.07;1.70;;;;;;;;;;5023430;28;20127;-54
2022/01/06 10:23:59;;;;;;;6.22;1.30;;;;;;;;;;5027716;28;20057;-51
2022/01/06 10:26:26;;;;;;;3.80;1.25;;;;;;;;;;5022330;28;20065;-55
2022/01/06 10:28:52;;;;;;;8.88;1.45;;;;;;;;;;5026532;28;20060;-56
2022/01/06 10:31:22;;;;;;;8.10;1.55;;;;;;;;;;5022880;28;20163;-55
2022/01/06 10:33:49;;;;;;;4.28;1.08;;;;;;;;;;5027641;28;20060;-56
2022/01/06 10:36:17;;;;;;;2.50;1.15;;;;;;;;;;5025551;28;20045;-51
2022/01/06 10:38:52;;;;;;;5.53;1.15;;;;;;;;;;5028022;28;20060;-59
2022/01/06 10:41:19;;;;;;;7.07;1.33;;;;;;;;;;5024362;28;20127;-58
2022/01/06 10:43:49;;;;;;;4.93;0.88;;;;;;;;;;5026675;28;20069;-58
2022/01/06 10:46:15;;;;;;;8.18;1.55;;;;;;;;;;5023849;28;20053;-54
2022/01/06 10:48:44;;;;;;;13.65;1.50;;;;;;;;;;5025605;28;20049;-59
2022/01/06 10:51:10;;;;;;;10.77;1.58;;;;;;;;;;5026958;28;20140;-54
2022/01/06 10:53:49;;;;;;;5.10;1.25;;;;;;;;;;5022977;28;20144;-57
2022/01/06 10:56:17;;;;;;;4.93;1.67;;;;;;;;;;5026504;28;20061;-58
2022/01/06 10:58:45;;;;;;;4.88;1.33;;;;;;;;;;5021703;28;20307;-58
2022/01/06 11:01:16;;;;;;;6.17;1.80;;;;;;;;;;5026140;28;20065;-58
2022/01/06 11:03:42;;;;;;;6.65;1.80;;;;;;;;;;5021696;28;20386;-52
2022/01/06 11:06:10;;;;;;;5.78;1.73;;;;;;;;;;5026291;28;20076;-55
2022/01/06 11:08:39;;;;;;;10.90;2.47;;;;;;;;;;5022704;28;20058;-53
2022/01/06 11:11:27;;;;;;;6.20;2.22;;;;;;;;;;5026386;28;20077;-54
2022/01/06 11:13:54;;;;;;;8.33;1.80;;;;;;;;;;5022463;28;20049;-55
2022/01/06 11:16:21;;;;;;;12.02;1.95;;;;;;;;;;5025969;28;20147;-49
2022/01/06 11:18:50;;;;;;;3.60;1.17;;;;;;;;;;5021006;28;20115;-55
2022/01/06 11:21:18;;;;;;;15.70;1.67;;;;;;;;;;5026383;28;20057;-55
2022/01/06 11:23:45;;;;;;;7.88;1.55;;;;;;;;;;5020968;28;20057;-55
2022/01/06 11:26:14;;;;;;;2.25;0.95;;;;;;;;;;5022525;28;20053;-55
2022/01/06 11:28:41;;;;;;;5.32;1.40;;;;;;;;;;5022101;28;20048;-55
2022/01/06 11:31:18;;;;;;;10.57;1.95;;;;;;;;;;5027076;28;20049;-54
2022/01/06 11:33:45;;;;;;;7.55;1.63;;;;;;;;;;5022275;28;20065;-57
2022/01/06 11:36:19;;;;;;;11.90;2.07;;;;;;;;;;5025545;28;20571;-55
2022/01/06 11:38:48;;;;;;;9.60;2.47;;;;;;;;;;5021228;28;20060;-53
2022/01/06 11:41:16;;;;;;;6.32;2.20;;;;;;;;;;5006385;28;20084;-50
2022/01/06 11:43:43;;;;;;;10.73;3.33;;;;;;;;;;5004665;28;20054;-54
2022/01/06 11:46:10;;;;;;;13.75;2.67;;;;;;;;;;5025419;28;20378;-52
2022/01/06 11:48:45;;;;;;;12.95;2.08;;;;;;;;;;5023470;28;20061;-51
2022/01/06 11:51:21;;;;;;;6.03;1.85;;;;;;;;;;5006845;28;20057;-53
2022/01/06 11:53:48;;;;;;;6.25;1.73;;;;;;;;;;5022801;28;20069;-52
2022/01/06 11:56:16;;;;;;;5.50;1.45;;;;;;;;;;5024185;28;20052;-55
2022/01/06 11:58:45;;;;;;;9.38;1.70;;;;;;;;;;5026227;28;20049;-55
2022/01/06 12:01:15;;;;;;;9.82;1.60;;;;;;;;;;5024154;28;20041;-54
2022/01/06 12:03:43;;;;;;;12.30;2.10;;;;;;;;;;5041973;28;20049;-53
2022/01/06 12:06:12;;;;;;;4.07;1.20;;;;;;;;;;5033133;28;20057;-58
2022/01/06 12:08:40;;;;;;;5.55;1.50;;;;;;;;;;5025074;28;20053;-57
2022/01/06 12:11:07;;;;;;;7.10;1.38;;;;;;;;;;5021606;28;20064;-58
2022/01/06 12:13:45;;;;;;;7.97;1.70;;;;;;;;;;5023038;28;20060;-54
2022/01/06 12:16:11;;;;;;;6.88;1.30;;;;;;;;;;5021612;28;20057;-52
2022/01/06 12:18:38;;;;;;;10.32;2.13;;;;;;;;;;5024848;28;20158;-53
2022/01/06 12:21:05;;;;;;;8.40;1.60;;;;;;;;;;5021817;28;20053;-53
2022/01/06 12:23:31;;;;;;;5.60;1.38;;;;;;;;;;5025488;28;20049;-53
2022/01/06 12:25:58;;;;;;;11.70;1.60;;;;;;;;;;5022238;28;20057;-55
2022/01/06 12:28:25;;;;;;;11.00;1.85;;;;;;;;;;5025081;28;20049;-52
2022/01/06 12:30:56;;;;;;;5.00;1.38;;;;;;;;;;5026384;28;20072;-55
2022/01/06 12:33:23;;;;;;;8.25;1.90;;;;;;;;;;5045181;28;20083;-53
2022/01/06 12:35:51;;;;;;;8.45;1.55;;;;;;;;;;5056890;28;20108;-55
2022/01/06 12:38:26;;;;;;;14.10;1.80;;;;;;;;;;5044477;28;20468;-55
2022/01/06 12:40:53;;;;;;;12.50;1.90;;;;;;;;;;5027092;28;20042;-54
2022/01/06 12:43:21;;;;;;;6.25;1.75;;;;;;;;;;5024417;28;20057;-56
2022/01/06 12:46:00;;;;;;;16.13;2.20;;;;;;;;;;5024799;28;20049;-52
2022/01/06 12:48:32;;;;;;;6.40;2.90;;;;;;;;;;5003227;28;20069;-54
2022/01/06 12:50:58;;;;;;;10.68;1.63;;;;;;;;;;5029167;28;20135;-57
2022/01/06 12:53:26;;;;;;;4.28;1.33;;;;;;;;;;5037036;28;20041;-54
2022/01/06 12:55:52;;;;;;;9.90;1.88;;;;;;;;;;5049808;28;20053;-55
2022/01/06 12:58:29;;;;;;;7.25;1.67;;;;;;;;;;5041609;28;20056;-54
2022/01/06 13:00:57;;;;;;;7.85;1.80;;;;;;;;;;5028935;28;20164;-54
2022/01/06 13:03:27;;;;;;;9.82;1.67;;;;;;;;;;5024516;28;20053;-58
2022/01/06 13:05:56;;;;;;;14.00;3.38;;;;;;;;;;5029012;28;20057;-54
2022/01/06 13:08:24;;;;;;;16.80;2.33;;;;;;;;;;5024378;28;20060;-57
2022/01/06 13:11:01;;;;;;;8.85;1.45;;;;;;;;;;5028395;28;20057;-55
2022/01/06 13:13:28;;;;;;;10.40;1.50;;;;;;;;;;5035637;28;20037;-55
2022/01/06 13:15:54;;;;;;;4.63;1.45;;;;;;;;;;5048791;28;20041;-54
2022/01/06 13:18:25;;;;;;;6.82;1.35;;;;;;;;;;5034369;28;20068;-57
2022/01/06 13:20:58;;;;;;;4.28;1.20;;;;;;;;;;5029117;28;20053;-58
2022/01/06 13:23:44;;;;;;;4.18;1.02;;;;;;;;;;5041786;28;20053;-57
2022/01/06 13:26:11;;;;;;;5.03;1.55;;;;;;;;;;5030607;28;20053;-57
2022/01/06 13:28:38;;;;;;;5.53;1.05;;;;;;;;;;5017845;28;20045;-56
2022/01/06 13:31:15;;;;;;;6.78;1.92;;;;;;;;;;5028499;28;20150;-57
2022/01/06 13:33:41;;;;;;;7.75;1.45;;;;;;;;;;5024758;28;20501;-55
2022/01/06 13:36:09;;;;;;;9.35;1.50;;;;;;;;;;5028282;28;20053;-62
2022/01/06 13:38:40;;;;;;;3.00;0.98;;;;;;;;;;5024085;28;20068;-58
2022/01/06 13:41:09;;;;;;;4.45;1.20;;;;;;;;;;5027643;28;20058;-55
2022/01/06 13:43:38;;;;;;;4.57;1.40;;;;;;;;;;5024373;28;20056;-55
2022/01/06 13:46:09;;;;;;;11.30;1.55;;;;;;;;;;5027538;28;20084;-60
2022/01/06 13:48:41;;;;;;;7.72;1.45;;;;;;;;;;5023562;28;20053;-55
2022/01/06 13:51:13;;;;;;;2.58;1.00;;;;;;;;;;5026722;28;20081;-55
2022/01/06 13:53:42;;;;;;;6.90;1.50;;;;;;;;;;5024335;28;20557;-58
2022/01/06 13:56:09;;;;;;;3.83;1.30;;;;;;;;;;5027488;28;20049;-55
2022/01/06 13:58:38;;;;;;;7.97;1.48;;;;;;;;;;5027486;28;20056;-54
2022/01/06 14:01:05;;;;;;;9.93;1.80;;;;;;;;;;5024591;28;20049;-59
2022/01/06 14:03:32;;;;;;;8.88;1.27;;;;;;;;;;5026892;28;20065;-54
2022/01/06 14:05:59;;;;;;;6.72;1.58;;;;;;;;;;5023618;28;20119;-55
2022/01/06 14:08:27;;;;;;;7.80;1.20;;;;;;;;;;5027181;28;20138;-55
2022/01/06 14:10:53;;;;;;;3.75;1.05;;;;;;;;;;5023854;28;20080;-57
2022/01/06 14:13:21;;;;;;;6.18;1.30;;;;;;;;;;5036168;28;20056;-58
2022/01/06 14:15:47;;;;;;;5.50;1.42;;;;;;;;;;5031077;28;20057;-58
2022/01/06 14:18:15;;;;;;;11.93;1.35;;;;;;;;;;5027361;28;20049;-58
2022/01/06 14:20:42;;;;;;;12.63;1.40;;;;;;;;;;5024366;28;20057;-56
2022/01/06 14:23:09;;;;;;;7.63;1.17;;;;;;;;;;5027330;28;20110;-58
2022/01/06 14:25:37;;;;;;;9.98;1.60;;;;;;;;;;5023014;28;20064;-56
2022/01/06 14:28:06;;;;;;;7.75;1.55;;;;;;;;;;5027306;28;20049;-57
2022/01/06 14:30:32;;;;;;;9.35;1.58;;;;;;;;;;5023108;28;20056;-55
2022/01/06 14:32:59;;;;;;;5.10;1.13;;;;;;;;;;5027367;28;20064;-58
2022/01/06 14:35:26;;;;;;;3.92;0.90;;;;;;;;;;5023330;28;20069;-60
2022/01/06 14:37:52;;;;;;;3.65;1.15;;;;;;;;;;5026920;28;20053;-56
2022/01/06 14:40:21;;;;;;;10.45;1.05;;;;;;;;;;5024460;28;20061;-59
2022/01/06 14:42:50;;;;;;;15.32;2.85;;;;;;;;;;5022781;28;20092;-60
2022/01/06 14:45:16;;;;;;;6.95;1.85;;;;;;;;;;5023899;28;20062;-61
2022/01/06 14:47:44;;;;;;;8.75;1.65;;;;;;;;;;5022751;28;20081;-57